Time;durP1;ratioP1;P1;durP2;ratioP2;P2;SDS_P1;SDS_P2;PMS_P1;PMS_P2;Temp;Humidity;BMP_temperature;BMP_pressure;BME280_temperature;BME280_humidity;BME280_pressure;Samples;Min_cycle;Max_cycle;Signal;HPM_P1;HPM_P2
2022/06/15 00:00:08;;;;;;;4.95;1.92;;;;;;;10.29;100.00;100233.22;5102606;27;20039;-61
2022/06/15 00:03:01;;;;;;;5.78;2.58;;;;;;;10.17;100.00;100241.25;5103273;28;20067;-62
2022/06/15 00:05:46;;;;;;;9.45;3.10;;;;;;;10.26;100.00;100241.13;5103243;27;20051;-61
2022/06/15 00:08:30;;;;;;;7.13;2.63;;;;;;;10.38;100.00;100242.66;5102864;27;20040;-60
2022/06/15 00:11:18;;;;;;;6.32;3.22;;;;;;;10.45;100.00;100240.81;5107115;27;20035;-61
2022/06/15 00:14:10;;;;;;;7.43;2.83;;;;;;;10.48;100.00;100230.28;5104764;27;20044;-61
2022/06/15 00:16:55;;;;;;;5.32;2.88;;;;;;;10.52;100.00;100230.19;5104015;28;20474;-62
2022/06/15 00:19:40;;;;;;;5.38;2.60;;;;;;;10.52;100.00;100238.03;5104668;28;20066;-61
2022/06/15 00:22:24;;;;;;;6.97;2.40;;;;;;;10.68;100.00;100233.38;5101942;27;20040;-62
2022/06/15 00:25:10;;;;;;;5.15;2.40;;;;;;;10.61;100.00;100242.25;5102677;28;20048;-61
2022/06/15 00:27:54;;;;;;;3.25;2.08;;;;;;;10.39;100.00;100223.44;5103996;27;20565;-62
2022/06/15 00:30:39;;;;;;;5.28;2.35;;;;;;;10.40;100.00;100234.78;5103123;28;20802;-61
2022/06/15 00:33:24;;;;;;;4.63;2.25;;;;;;;10.32;100.00;100237.53;5102600;27;20052;-62
2022/06/15 00:36:15;;;;;;;6.88;2.53;;;;;;;10.37;100.00;100243.56;5103596;27;20032;-62
2022/06/15 00:39:00;;;;;;;5.47;2.30;;;;;;;10.36;100.00;100226.13;5108677;27;20639;-61
2022/06/15 00:41:45;;;;;;;6.68;2.75;;;;;;;10.38;100.00;100239.19;5107854;27;20035;-62
2022/06/15 00:44:36;;;;;;;5.45;2.15;;;;;;;10.51;100.00;100231.09;5106073;27;20044;-61
2022/06/15 00:47:24;;;;;;;4.57;2.33;;;;;;;10.59;100.00;100241.41;5110332;27;20039;-61
2022/06/15 00:50:17;;;;;;;4.65;2.00;;;;;;;10.66;100.00;100244.78;5092396;28;20032;-63
2022/06/15 00:53:07;;;;;;;6.22;2.90;;;;;;;10.49;100.00;100237.22;5103715;28;20505;-62
2022/06/15 00:55:52;;;;;;;16.85;5.10;;;;;;;10.46;100.00;100242.53;5107930;27;20043;-62
2022/06/15 00:58:39;;;;;;;12.15;5.50;;;;;;;10.57;100.00;100242.34;5106885;28;20044;-61
2022/06/15 01:01:24;;;;;;;10.23;5.15;;;;;;;10.48;100.00;100235.53;5105955;28;20044;-61
2022/06/15 01:04:09;;;;;;;11.18;3.85;;;;;;;10.62;100.00;100232.63;5105841;28;20051;-61
2022/06/15 01:07:03;;;;;;;8.60;3.80;;;;;;;10.54;100.00;100232.78;5105442;27;20040;-60
2022/06/15 01:10:00;;;;;;;6.47;3.22;;;;;;;10.55;100.00;100242.38;5119059;27;20470;-60
2022/06/15 01:12:51;;;;;;;5.05;2.67;;;;;;;10.65;100.00;100236.06;5110639;27;20575;-62
2022/06/15 01:15:41;;;;;;;14.40;5.65;;;;;;;10.69;100.00;100239.47;5106868;27;20036;-60
2022/06/15 01:18:33;;;;;;;12.35;4.88;;;;;;;10.60;100.00;100240.53;5135495;27;20143;-61
2022/06/15 01:21:38;;;;;;;13.77;5.75;;;;;;;10.51;100.00;100230.22;5105125;28;20058;-61
2022/06/15 01:25:09;;;;;;;14.50;6.53;;;;;;;10.50;100.00;100224.13;5109780;27;20047;-60
2022/06/15 01:27:57;;;;;;;15.40;7.72;;;;;;;10.25;100.00;100226.28;5106036;27;20112;-63
2022/06/15 01:30:58;;;;;;;13.88;6.72;;;;;;;10.18;100.00;100229.03;5111646;27;20659;-61
2022/06/15 01:34:22;;;;;;;10.45;5.82;;;;;;;10.16;100.00;100230.81;5103230;28;20050;-63
2022/06/15 01:37:27;;;;;;;11.93;5.95;;;;;;;10.04;100.00;100222.28;5074146;27;20064;-60
2022/06/15 01:40:27;;;;;;;7.90;4.35;;;;;;;9.94;100.00;100233.75;5102679;27;20682;-62
2022/06/15 01:43:18;;;;;;;4.63;3.00;;;;;;;9.90;100.00;100226.84;5105267;28;20040;-61
2022/06/15 01:46:04;;;;;;;4.22;2.92;;;;;;;9.83;100.00;100231.31;5102934;27;20048;-61
2022/06/15 01:48:53;;;;;;;6.97;2.50;;;;;;;9.83;100.00;100230.44;5102538;28;20474;-60
2022/06/15 01:51:42;;;;;;;5.10;2.40;;;;;;;9.66;100.00;100219.38;5106442;28;20043;-61
2022/06/15 01:54:40;;;;;;;3.90;2.03;;;;;;;9.72;100.00;100230.63;5106567;28;20035;-61
2022/06/15 01:57:28;;;;;;;5.55;2.13;;;;;;;9.49;100.00;100223.13;5103762;28;20040;-63
2022/06/15 02:00:19;;;;;;;3.35;1.90;;;;;;;9.27;100.00;100234.75;5101269;28;20035;-62
2022/06/15 02:03:10;;;;;;;6.35;2.85;;;;;;;9.18;100.00;100238.31;5103001;27;20047;-63
2022/06/15 02:06:12;;;;;;;4.97;2.80;;;;;;;9.14;100.00;100239.25;5104805;27;20055;-61
2022/06/15 02:09:03;;;;;;;6.32;3.28;;;;;;;9.19;100.00;100233.97;5103326;27;20031;-62
2022/06/15 02:11:47;;;;;;;4.05;2.55;;;;;;;9.15;100.00;100229.66;5127807;27;20048;-61
2022/06/15 02:14:39;;;;;;;4.43;2.28;;;;;;;8.99;100.00;100236.81;5101290;27;20046;-61
2022/06/15 02:17:34;;;;;;;3.83;2.17;;;;;;;9.08;100.00;100247.16;5100621;28;20566;-61
2022/06/15 02:20:26;;;;;;;6.88;2.60;;;;;;;9.09;100.00;100244.53;5096010;27;20047;-62
2022/06/15 02:23:14;;;;;;;3.95;2.22;;;;;;;8.99;100.00;100244.66;5125160;27;20491;-62
2022/06/15 02:26:02;;;;;;;5.05;2.22;;;;;;;9.01;100.00;100245.50;5125553;27;20051;-61
2022/06/15 02:28:54;;;;;;;3.88;1.95;;;;;;;8.90;100.00;100237.78;5099852;28;20126;-62
2022/06/15 02:31:41;;;;;;;4.72;2.50;;;;;;;8.86;100.00;100234.34;5091344;27;20036;-61
2022/06/15 02:34:27;;;;;;;2.88;2.03;;;;;;;8.93;100.00;100235.13;5109605;27;20027;-64
2022/06/15 02:37:13;;;;;;;7.30;2.47;;;;;;;8.93;100.00;100244.72;5116292;27;20040;-62
2022/06/15 02:39:57;;;;;;;5.30;2.20;;;;;;;8.85;100.00;100245.69;5102175;28;20040;-64
2022/06/15 02:42:42;;;;;;;6.53;2.38;;;;;;;8.83;100.00;100244.81;5103022;28;20062;-62
2022/06/15 02:45:39;;;;;;;4.65;2.67;;;;;;;8.94;100.00;100246.44;5104312;28;20040;-61
2022/06/15 02:48:24;;;;;;;4.00;2.38;;;;;;;8.95;100.00;100248.19;5106739;28;20039;-62
2022/06/15 02:51:28;;;;;;;6.13;2.70;;;;;;;8.94;100.00;100249.06;5102984;28;20498;-61
2022/06/15 02:54:27;;;;;;;6.40;2.67;;;;;;;8.89;100.00;100252.59;5105622;28;20044;-61
2022/06/15 02:57:17;;;;;;;4.43;2.97;;;;;;;8.82;100.00;100244.84;5104605;28;20496;-65
2022/06/15 03:00:03;;;;;;;4.38;2.45;;;;;;;8.82;100.00;100250.94;5113064;28;20040;-65
2022/06/15 03:02:48;;;;;;;6.90;2.60;;;;;;;8.76;100.00;100242.31;5110470;28;20040;-62
2022/06/15 03:05:34;;;;;;;5.18;2.28;;;;;;;8.77;100.00;100257.09;5106986;28;20043;-64
2022/06/15 03:08:20;;;;;;;6.05;2.28;;;;;;;8.72;100.00;100236.25;5108296;28;20154;-63
2022/06/15 03:11:10;;;;;;;3.67;2.53;;;;;;;8.83;100.00;100250.03;5095223;27;20032;-63
2022/06/15 03:13:55;;;;;;;6.30;2.90;;;;;;;8.81;100.00;100246.59;5111779;27;20043;-62
2022/06/15 03:16:43;;;;;;;6.00;2.40;;;;;;;8.74;100.00;100233.59;5108590;27;20048;-62
2022/06/15 03:19:29;;;;;;;4.28;2.28;;;;;;;8.73;100.00;100235.34;5097980;28;20089;-62
2022/06/15 03:22:19;;;;;;;4.03;2.38;;;;;;;8.87;100.00;100245.66;5096329;27;20035;-63
2022/06/15 03:25:08;;;;;;;3.10;2.10;;;;;;;8.90;100.00;100248.22;5109393;27;20043;-62
2022/06/15 03:27:53;;;;;;;4.43;2.47;;;;;;;8.85;100.00;100260.50;5108429;28;20031;-61
2022/06/15 03:30:41;;;;;;;4.47;2.92;;;;;;;8.80;100.00;100244.00;5106099;28;20048;-63
2022/06/15 03:33:26;;;;;;;5.50;3.05;;;;;;;8.91;100.00;100241.28;5112427;27;20035;-61
2022/06/15 03:36:11;;;;;;;5.20;2.60;;;;;;;8.79;100.00;100239.66;5108297;27;20688;-64
2022/06/15 03:38:56;;;;;;;4.75;2.65;;;;;;;8.89;100.00;100246.50;5105986;27;20040;-62
2022/06/15 03:41:52;;;;;;;3.33;2.22;;;;;;;8.87;100.00;100236.09;5100980;27;20039;-63
2022/06/15 03:44:39;;;;;;;4.20;2.47;;;;;;;9.05;100.00;100250.66;5102341;27;20619;-64
2022/06/15 03:47:25;;;;;;;5.05;3.05;;;;;;;9.12;100.00;100252.31;5101902;28;20124;-63
2022/06/15 03:50:09;;;;;;;5.85;2.90;;;;;;;9.27;100.00;100246.06;5103115;27;20036;-62
2022/06/15 03:52:54;;;;;;;4.72;2.80;;;;;;;9.36;100.00;100251.16;5102722;27;21375;-62
2022/06/15 03:55:40;;;;;;;4.45;2.47;;;;;;;9.51;100.00;100241.38;5102086;28;20048;-62
2022/06/15 03:58:29;;;;;;;4.57;2.65;;;;;;;9.60;100.00;100242.13;5104664;27;20054;-65
2022/06/15 04:01:14;;;;;;;4.00;2.50;;;;;;;9.80;100.00;100246.19;5106989;28;20054;-63
2022/06/15 04:03:59;;;;;;;4.85;2.80;;;;;;;9.78;100.00;100241.00;5094638;28;20042;-64
2022/06/15 04:06:49;;;;;;;6.07;3.33;;;;;;;9.74;100.00;100241.91;5109078;27;20068;-62
2022/06/15 04:09:35;;;;;;;6.03;2.90;;;;;;;9.87;100.00;100253.06;5105507;27;20040;-61
2022/06/15 04:12:24;;;;;;;5.05;2.92;;;;;;;10.22;100.00;100264.72;5110649;27;20032;-62
2022/06/15 04:15:09;;;;;;;6.82;3.53;;;;;;;10.47;100.00;100257.38;5108520;27;20127;-62
2022/06/15 04:17:58;;;;;;;5.95;3.33;;;;;;;10.55;100.00;100252.00;5093074;28;20043;-64
2022/06/15 04:20:50;;;;;;;8.90;3.65;;;;;;;11.02;100.00;100265.94;5106352;27;20051;-63
2022/06/15 04:23:40;;;;;;;4.75;2.53;;;;;;;11.66;100.00;100268.09;5119515;27;20391;-62
2022/06/15 04:26:25;;;;;;;5.68;2.50;;;;;;;12.08;100.00;100262.78;5097811;27;20059;-63
2022/06/15 04:29:10;;;;;;;4.18;2.88;;;;;;;12.00;100.00;100267.38;5114814;27;20036;-63
2022/06/15 04:31:56;;;;;;;3.40;2.38;;;;;;;12.51;100.00;100266.09;5108071;27;20457;-62
2022/06/15 04:34:44;;;;;;;6.88;2.45;;;;;;;12.72;100.00;100256.81;5101834;27;20077;-62
2022/06/15 04:37:28;;;;;;;5.30;2.50;;;;;;;12.07;100.00;100255.81;5105535;28;20036;-62
2022/06/15 04:40:20;;;;;;;7.35;2.70;;;;;;;12.52;100.00;100271.34;5111596;27;20080;-62
2022/06/15 04:43:06;;;;;;;4.82;2.92;;;;;;;12.83;100.00;100265.25;5105576;28;20616;-62
2022/06/15 04:45:51;;;;;;;5.75;3.00;;;;;;;13.61;100.00;100256.91;5106359;27;20089;-63
2022/06/15 04:48:41;;;;;;;9.30;3.03;;;;;;;13.00;100.00;100265.69;5101232;28;20138;-62
2022/06/15 04:51:29;;;;;;;4.45;2.83;;;;;;;13.25;100.00;100265.84;5090985;28;20040;-62
2022/06/15 04:54:14;;;;;;;5.85;2.47;;;;;;;13.31;100.00;100262.19;5129073;27;20040;-62
2022/06/15 04:57:03;;;;;;;6.80;3.20;;;;;;;13.32;100.00;100266.53;5090519;28;20102;-62
2022/06/15 04:59:48;;;;;;;6.63;3.30;;;;;;;13.89;100.00;100255.16;5088534;28;20051;-62
2022/06/15 05:02:35;;;;;;;3.40;2.63;;;;;;;13.20;100.00;100259.84;5117339;27;20396;-62
2022/06/15 05:05:22;;;;;;;3.83;2.50;;;;;;;14.13;100.00;100260.56;5097101;28;20068;-62
2022/06/15 05:08:07;;;;;;;3.17;2.22;;;;;;;14.60;100.00;100260.78;5098984;28;20044;-62
2022/06/15 05:10:52;;;;;;;9.90;3.10;;;;;;;15.24;100.00;100244.41;5105554;27;20134;-62
2022/06/15 05:13:37;;;;;;;5.68;3.60;;;;;;;14.93;100.00;100269.28;5088990;28;20035;-62
2022/06/15 05:16:23;;;;;;;8.18;5.35;;;;;;;14.61;100.00;100268.63;5102179;28;20032;-62
2022/06/15 05:19:10;;;;;;;11.70;6.80;;;;;;;15.73;100.00;100258.41;5105807;27;20036;-62
2022/06/15 05:21:55;;;;;;;11.88;6.60;;;;;;;16.28;100.00;100265.00;5105067;28;20036;-62
2022/06/15 05:24:41;;;;;;;9.07;5.32;;;;;;;16.15;100.00;100258.47;5102209;28;20043;-61
2022/06/15 05:27:27;;;;;;;12.40;3.65;;;;;;;16.46;100.00;100276.56;5104675;27;20032;-61
2022/06/15 05:30:14;;;;;;;8.40;3.90;;;;;;;16.82;100.00;100258.28;5102019;27;20652;-62
2022/06/15 05:32:59;;;;;;;9.20;3.83;;;;;;;15.97;100.00;100259.22;5100035;28;20550;-61
2022/06/15 05:35:44;;;;;;;5.22;3.05;;;;;;;16.75;100.00;100258.66;5104158;28;20473;-61
2022/06/15 05:38:29;;;;;;;5.70;2.85;;;;;;;16.80;100.00;100254.00;5111874;27;20329;-61
2022/06/15 05:41:14;;;;;;;6.45;2.70;;;;;;;16.26;100.00;100263.34;5106194;27;20035;-61
2022/06/15 05:47:14;;;;;;;4.85;2.33;;;;;;;16.58;100.00;100256.69;5091496;27;20055;-66
2022/06/15 05:50:16;;;;;;;5.53;2.53;;;;;;;17.78;100.00;100259.28;5105807;27;20035;-64
2022/06/15 05:53:07;;;;;;;6.18;2.83;;;;;;;17.03;100.00;100263.59;5087611;28;20043;-64
2022/06/15 05:55:52;;;;;;;7.13;2.70;;;;;;;18.47;100.00;100262.06;5100004;28;20504;-63
2022/06/15 05:58:36;;;;;;;3.90;1.73;;;;;;;18.83;100.00;100256.69;5098605;28;20061;-62
2022/06/15 06:01:30;;;;;;;3.08;1.63;;;;;;;18.67;100.00;100256.59;5102072;27;20040;-62
2022/06/15 06:04:16;;;;;;;4.35;1.85;;;;;;;18.23;100.00;100248.22;5097751;28;20058;-63
2022/06/15 06:07:01;;;;;;;3.78;1.70;;;;;;;18.22;100.00;100251.81;5102825;27;20040;-62
2022/06/15 06:09:45;;;;;;;2.42;1.05;;;;;;;19.80;100.00;100246.19;5099513;27;20043;-62
2022/06/15 06:12:30;;;;;;;2.35;0.70;;;;;;;20.10;92.18;100254.22;5098150;28;20444;-62
2022/06/15 06:15:15;;;;;;;5.65;1.00;;;;;;;19.58;100.00;100252.66;5096627;28;20040;-62
2022/06/15 06:18:01;;;;;;;2.30;0.80;;;;;;;19.84;90.79;100250.38;5096533;28;20043;-62
2022/06/15 06:20:45;;;;;;;2.33;0.70;;;;;;;19.85;91.95;100244.13;5078155;28;20043;-62
2022/06/15 06:23:31;;;;;;;2.53;0.68;;;;;;;19.00;90.37;100252.31;5101235;28;20091;-63
2022/06/15 06:26:26;;;;;;;4.93;0.80;;;;;;;19.84;86.81;100248.56;5100603;28;20065;-62
2022/06/15 06:29:13;;;;;;;2.53;0.70;;;;;;;19.86;90.61;100253.81;5101232;27;20466;-63
2022/06/15 06:31:58;;;;;;;4.45;1.17;;;;;;;20.33;81.06;100242.25;5097257;28;20043;-62
2022/06/15 06:34:44;;;;;;;1.23;0.40;;;;;;;20.77;86.55;100244.97;5101288;28;20043;-63
2022/06/15 06:37:34;;;;;;;1.45;0.50;;;;;;;20.91;82.77;100243.25;5100981;27;20120;-63
2022/06/15 06:40:18;;;;;;;2.10;0.50;;;;;;;20.71;75.98;100263.09;5097788;28;20048;-62
2022/06/15 06:43:03;;;;;;;3.05;0.60;;;;;;;20.76;82.27;100261.00;5103507;27;20044;-63
2022/06/15 06:45:49;;;;;;;3.47;0.80;;;;;;;21.29;77.35;100253.38;5101349;28;20044;-62
2022/06/15 06:48:34;;;;;;;2.08;0.70;;;;;;;21.23;81.05;100244.78;5102100;28;20040;-63
2022/06/15 06:51:18;;;;;;;5.00;0.75;;;;;;;21.36;79.48;100239.59;5092164;28;20039;-63
2022/06/15 06:54:05;;;;;;;3.30;0.77;;;;;;;20.56;81.81;100253.38;5105283;28;20040;-63
2022/06/15 06:56:50;;;;;;;2.15;0.60;;;;;;;20.57;81.03;100252.41;5103336;28;20040;-64
2022/06/15 06:59:35;;;;;;;4.10;0.80;;;;;;;20.92;78.88;100244.97;5131762;27;20039;-64
2022/06/15 07:02:19;;;;;;;2.58;0.70;;;;;;;20.65;76.88;100247.50;5104221;28;20031;-64
2022/06/15 07:05:04;;;;;;;3.47;0.70;;;;;;;20.82;80.36;100242.00;5103224;28;20044;-63
2022/06/15 07:07:48;;;;;;;3.50;0.93;;;;;;;21.82;74.81;100235.78;5103026;28;20036;-63
2022/06/15 07:10:33;;;;;;;2.30;0.73;;;;;;;21.52;75.92;100239.47;5110997;28;20039;-63
2022/06/15 07:13:17;;;;;;;1.20;0.38;;;;;;;22.22;68.30;100222.50;5112652;28;20039;-63
2022/06/15 07:16:06;;;;;;;4.15;0.65;;;;;;;22.55;67.46;100230.91;5102702;28;20046;-64
2022/06/15 07:18:51;;;;;;;4.45;0.63;;;;;;;22.91;70.12;100233.81;5106139;28;20478;-64
2022/06/15 07:21:38;;;;;;;4.72;0.60;;;;;;;22.62;68.86;100244.72;5107276;28;20066;-65
2022/06/15 07:24:22;;;;;;;2.17;0.40;;;;;;;22.53;72.54;100242.66;5105124;28;20486;-64
2022/06/15 07:27:07;;;;;;;3.78;0.70;;;;;;;22.90;68.20;100245.47;5106045;28;20036;-64
2022/06/15 07:29:53;;;;;;;1.40;0.50;;;;;;;22.92;67.50;100246.22;5108230;28;20044;-64
2022/06/15 07:32:39;;;;;;;2.42;0.50;;;;;;;22.25;71.49;100251.66;5109403;28;20044;-65
2022/06/15 07:35:30;;;;;;;3.85;0.60;;;;;;;23.31;66.48;100250.59;5108610;28;20031;-64
2022/06/15 07:38:16;;;;;;;2.42;0.70;;;;;;;22.12;69.41;100246.25;5111277;28;20028;-64
2022/06/15 07:41:02;;;;;;;2.55;0.45;;;;;;;22.97;68.03;100252.97;5104527;28;20035;-63
2022/06/15 07:43:47;;;;;;;1.77;0.30;;;;;;;23.50;64.68;100239.47;5101203;28;20047;-65
2022/06/15 07:46:32;;;;;;;1.90;0.22;;;;;;;22.30;66.02;100244.22;5098448;28;20053;-64
2022/06/15 07:52:32;;;;;;;1.67;0.50;;;;;;;24.11;65.75;100244.81;5100087;28;20031;-63
2022/06/15 07:55:31;;;;;;;1.83;0.52;;;;;;;23.39;62.49;100240.22;5104303;28;20032;-63
2022/06/15 07:58:16;;;;;;;2.35;0.60;;;;;;;23.72;62.63;100247.66;5104255;27;20039;-63
2022/06/15 08:01:00;;;;;;;2.17;0.40;;;;;;;23.40;60.28;100246.41;5103566;27;20036;-63
2022/06/15 08:03:44;;;;;;;1.77;0.40;;;;;;;23.75;61.39;100241.22;5108948;27;20412;-63
2022/06/15 08:06:30;;;;;;;1.17;0.30;;;;;;;24.44;64.24;100236.97;5106424;28;20044;-63
2022/06/15 08:09:15;;;;;;;3.72;0.70;;;;;;;24.56;57.23;100239.66;5106260;27;20558;-63
2022/06/15 08:12:12;;;;;;;5.55;0.70;;;;;;;23.67;59.35;100230.22;5101999;27;20036;-63
2022/06/15 08:15:00;;;;;;;5.38;0.70;;;;;;;23.60;58.80;100228.97;5102795;27;20410;-64
2022/06/15 08:17:52;;;;;;;2.28;0.32;;;;;;;22.45;62.12;100236.97;5105569;27;20047;-64
2022/06/15 08:20:52;;;;;;;1.42;0.20;;;;;;;22.91;63.93;100242.69;5101674;28;20039;-63
2022/06/15 08:23:41;;;;;;;0.90;0.30;;;;;;;23.52;55.16;100225.00;5105198;27;20032;-64
2022/06/15 08:26:32;;;;;;;1.65;0.60;;;;;;;22.60;59.13;100225.25;5109450;28;20040;-64
2022/06/15 08:29:19;;;;;;;1.97;0.30;;;;;;;23.16;59.83;100225.81;5101021;28;20040;-63
2022/06/15 08:32:04;;;;;;;1.80;0.50;;;;;;;22.87;59.60;100230.50;5102126;28;20472;-63
2022/06/15 08:34:49;;;;;;;1.55;0.43;;;;;;;23.18;61.04;100231.06;5103259;27;20048;-64
2022/06/15 08:37:33;;;;;;;1.38;0.13;;;;;;;23.64;58.40;100231.28;5101199;28;20036;-62
2022/06/15 08:40:18;;;;;;;1.90;0.35;;;;;;;24.53;54.82;100229.19;5104563;27;20036;-62
2022/06/15 08:43:32;;;;;;;2.08;0.35;;;;;;;24.46;58.69;100226.13;5103364;28;20044;-62
2022/06/15 08:46:58;;;;;;;1.90;0.22;;;;;;;24.09;56.67;100226.22;5108664;27;20390;-62
2022/06/15 08:49:58;;;;;;;1.55;0.20;;;;;;;23.92;55.57;100226.59;5101219;28;20123;-63
2022/06/15 08:52:48;;;;;;;1.55;0.20;;;;;;;24.82;57.79;100218.91;5104350;27;20049;-63
2022/06/15 08:55:56;;;;;;;1.77;0.30;;;;;;;24.80;55.00;100226.22;5106601;28;20060;-63
2022/06/15 08:58:46;;;;;;;0.98;0.25;;;;;;;24.65;56.99;100236.28;5107034;27;20466;-63
2022/06/15 09:01:39;;;;;;;1.20;0.20;;;;;;;24.76;54.58;100233.63;5100765;27;20068;-63
2022/06/15 09:04:46;;;;;;;1.75;0.52;;;;;;;25.11;53.52;100235.38;5107138;27;20036;-63
2022/06/15 09:07:39;;;;;;;4.18;0.17;;;;;;;24.49;58.17;100232.09;5102039;27;20382;-63
2022/06/15 09:10:42;;;;;;;1.27;0.20;;;;;;;25.40;52.83;100233.94;5109278;27;20036;-63
2022/06/15 09:13:36;;;;;;;1.00;0.20;;;;;;;25.66;50.65;100230.97;5102791;27;20047;-60
2022/06/15 09:16:39;;;;;;;2.17;0.50;;;;;;;24.72;51.88;100243.72;5105043;27;20044;-61
2022/06/15 09:19:32;;;;;;;1.08;0.10;;;;;;;25.61;50.34;100239.41;5100428;27;20044;-56
2022/06/15 09:22:27;;;;;;;1.13;0.25;;;;;;;24.23;54.24;100230.53;5103626;28;20387;-59
2022/06/15 09:25:17;;;;;;;2.90;0.43;;;;;;;25.15;52.92;100227.03;5104565;27;20907;-61
2022/06/15 09:28:15;;;;;;;1.58;0.30;;;;;;;25.99;50.81;100223.84;5103876;28;20043;-61
2022/06/15 09:31:06;;;;;;;0.60;0.17;;;;;;;26.53;49.63;100222.91;5099604;28;20036;-62
2022/06/15 09:34:01;;;;;;;2.72;0.22;;;;;;;26.09;54.28;100227.47;5100156;28;20047;-62
2022/06/15 09:36:54;;;;;;;1.20;0.20;;;;;;;25.99;49.56;100216.66;5100330;28;20035;-65
2022/06/15 09:39:40;;;;;;;1.60;0.28;;;;;;;26.81;50.46;100216.00;5102009;28;20036;-63
2022/06/15 09:42:34;;;;;;;1.15;0.30;;;;;;;26.27;47.50;100217.03;5101948;28;20565;-63
2022/06/15 09:45:35;;;;;;;1.52;0.25;;;;;;;25.36;51.82;100215.56;5102221;28;20086;-63
2022/06/15 09:48:57;;;;;;;3.63;0.22;;;;;;;25.47;51.46;100212.00;5102160;28;20044;-62
2022/06/15 09:52:16;;;;;;;3.30;0.28;;;;;;;25.33;53.99;100213.13;5100572;28;20056;-64
2022/06/15 09:55:45;;;;;;;1.35;0.28;;;;;;;23.81;52.89;100205.16;5098679;28;20473;-63
2022/06/15 09:58:54;;;;;;;0.80;0.30;;;;;;;24.75;53.61;100206.97;5042468;28;20411;-64
2022/06/15 10:01:45;;;;;;;2.40;0.30;;;;;;;25.59;50.43;100206.50;5051967;28;20037;-63
2022/06/15 10:04:33;;;;;;;1.15;0.30;;;;;;;25.49;48.44;100210.06;5100169;28;20438;-63
2022/06/15 10:07:26;;;;;;;1.90;0.30;;;;;;;24.29;51.66;100207.81;5104901;28;20039;-64
2022/06/15 10:10:34;;;;;;;1.45;0.30;;;;;;;25.33;54.14;100199.72;5102490;28;20036;-63
2022/06/15 10:13:18;;;;;;;1.15;0.20;;;;;;;26.03;49.24;100201.13;5103879;28;20138;-65
2022/06/15 10:16:27;;;;;;;1.95;0.20;;;;;;;24.63;53.98;100203.41;5100697;27;20046;-65
2022/06/15 10:19:13;;;;;;;2.90;0.50;;;;;;;24.42;53.41;100201.44;5102009;28;20039;-63
2022/06/15 10:22:05;;;;;;;4.80;2.10;;;;;;;25.57;51.96;100194.19;5106582;28;20406;-62
2022/06/15 10:24:50;;;;;;;1.92;0.60;;;;;;;24.40;54.03;100200.66;5101242;28;20036;-62
2022/06/15 10:27:38;;;;;;;2.20;0.40;;;;;;;24.46;52.47;100205.56;5102463;28;20043;-62
2022/06/15 10:30:23;;;;;;;1.95;0.40;;;;;;;23.73;52.04;100203.91;5101755;28;20040;-61
2022/06/15 10:33:19;;;;;;;1.80;0.32;;;;;;;25.04;52.09;100202.00;5102276;28;20051;-62
2022/06/15 10:36:15;;;;;;;1.88;0.30;;;;;;;24.92;48.80;100187.75;5099823;28;20873;-63
2022/06/15 10:39:12;;;;;;;1.58;0.20;;;;;;;25.31;49.50;100193.63;5102207;28;20043;-61
2022/06/15 10:42:07;;;;;;;1.40;0.22;;;;;;;24.12;50.40;100198.38;5104645;28;20043;-62
2022/06/15 10:44:59;;;;;;;3.13;0.43;;;;;;;24.60;51.71;100187.59;5105565;28;20047;-61
2022/06/15 10:48:09;;;;;;;1.95;0.30;;;;;;;25.20;51.64;100188.28;5105319;28;20112;-61
2022/06/15 10:51:05;;;;;;;1.55;0.20;;;;;;;25.53;48.92;100182.84;5103490;28;20035;-62
2022/06/15 10:54:21;;;;;;;1.98;0.20;;;;;;;26.06;47.15;100185.66;5105850;28;20052;-63
2022/06/15 11:03:35;;;;;;;2.33;0.50;;;;;;;25.14;50.36;100178.91;5103657;28;20044;-62
2022/06/15 11:06:20;;;;;;;1.08;0.22;;;;;;;24.99;49.96;100193.47;5102053;28;20056;-62
2022/06/15 11:09:07;;;;;;;0.98;0.30;;;;;;;26.84;46.32;100178.13;5101879;28;20067;-64
2022/06/15 11:11:52;;;;;;;1.05;0.25;;;;;;;26.23;48.60;100178.88;5103542;28;20062;-63
2022/06/15 11:14:49;;;;;;;0.88;0.20;;;;;;;26.13;50.96;100182.44;5101274;28;20047;-61
2022/06/15 11:18:22;;;;;;;2.20;0.50;;;;;;;25.13;48.23;100180.72;5104036;28;20047;-60
2022/06/15 11:20:41;;;;;;;2.92;0.10;;;;;;;24.35;52.72;100185.94;5095473;27;20063;-64
2022/06/15 11:23:34;;;;;;;1.75;0.47;;;;;;;25.59;51.80;100173.47;5099859;28;20036;-63
2022/06/15 11:27:08;;;;;;;2.08;0.73;;;;;;;26.22;47.97;100176.31;5101240;28;20044;-65
2022/06/15 11:30:16;;;;;;;1.02;0.30;;;;;;;26.71;48.59;100166.75;5080085;28;20083;-64
2022/06/15 11:33:18;;;;;;;3.13;0.15;;;;;;;24.98;47.51;100173.88;5102544;27;20043;-64
2022/06/15 11:36:31;;;;;;;0.80;0.10;;;;;;;25.62;52.10;100168.69;5109397;27;20036;-63
2022/06/15 11:39:38;;;;;;;1.05;0.10;;;;;;;25.56;51.19;100166.53;5095444;28;20047;-63
2022/06/15 11:42:24;;;;;;;1.45;0.10;;;;;;;25.92;50.71;100169.00;5105293;27;20043;-64
2022/06/15 11:45:14;;;;;;;3.17;0.20;;;;;;;25.15;48.31;100164.50;5100581;27;20043;-63
2022/06/15 11:48:26;;;;;;;1.50;0.20;;;;;;;25.06;48.82;100171.44;5105771;28;20044;-63
2022/06/15 11:51:38;;;;;;;3.23;0.40;;;;;;;24.54;49.41;100167.53;5100054;27;20058;-65
2022/06/15 11:55:14;;;;;;;2.45;0.57;;;;;;;26.19;52.34;100165.81;5102688;28;22252;-62
2022/06/15 11:58:18;;;;;;;1.73;0.20;;;;;;;26.02;48.04;100169.94;5063459;28;20129;-64
2022/06/15 12:01:14;;;;;;;3.17;0.20;;;;;;;26.10;51.12;100160.25;5101015;28;20118;-62
2022/06/15 12:04:30;;;;;;;0.95;0.20;;;;;;;26.35;45.67;100159.00;5108024;27;20032;-62
2022/06/15 12:07:28;;;;;;;1.40;0.45;;;;;;;26.72;48.36;100163.94;5104608;28;20063;-63
2022/06/15 12:10:13;;;;;;;2.03;0.63;;;;;;;26.25;48.78;100152.72;5103782;27;20047;-63
2022/06/15 12:13:04;;;;;;;1.05;0.15;;;;;;;26.34;47.92;100160.00;5106594;28;20060;-62
2022/06/15 12:15:59;;;;;;;2.13;0.38;;;;;;;26.48;48.75;100153.47;5105124;27;20084;-63
2022/06/15 12:19:03;;;;;;;0.80;0.35;;;;;;;25.87;47.84;100153.31;5105242;28;20133;-63
2022/06/15 12:22:02;;;;;;;1.13;0.20;;;;;;;25.58;47.08;100155.69;5105181;27;20059;-61
2022/06/15 12:25:09;;;;;;;0.55;0.10;;;;;;;24.68;46.61;100158.41;5105684;27;20043;-63
2022/06/15 12:28:03;;;;;;;1.30;0.40;;;;;;;24.48;50.78;100150.09;5106030;27;20083;-61
2022/06/15 12:31:11;;;;;;;0.82;0.10;;;;;;;25.21;48.91;100147.94;5104625;27;20058;-60
2022/06/15 12:34:11;;;;;;;1.52;0.22;;;;;;;25.81;47.74;100140.41;5102254;27;20048;-62
2022/06/15 12:37:14;;;;;;;1.75;0.30;;;;;;;25.20;46.13;100132.84;5105507;27;20505;-64
2022/06/15 12:40:08;;;;;;;0.73;0.13;;;;;;;25.22;49.28;100130.03;5102568;28;20807;-62
2022/06/15 12:43:02;;;;;;;0.47;0.10;;;;;;;25.47;48.32;100128.88;5106518;27;20138;-63
2022/06/15 12:45:52;;;;;;;0.57;0.20;;;;;;;25.50;52.39;100126.81;5106707;28;20405;-64
2022/06/15 12:48:54;;;;;;;1.95;0.20;;;;;;;25.60;48.29;100134.94;5107849;27;20053;-63
2022/06/15 12:51:59;;;;;;;1.15;0.17;;;;;;;25.48;52.18;100138.63;5106737;27;20173;-63
2022/06/15 12:54:59;;;;;;;2.03;0.30;;;;;;;25.41;47.55;100133.78;5102988;27;20060;-63
2022/06/15 12:57:43;;;;;;;2.40;0.30;;;;;;;25.34;47.65;100132.56;5103377;28;20032;-63
2022/06/15 13:00:36;;;;;;;2.38;0.20;;;;;;;25.15;50.83;100127.00;5103094;28;20184;-66
2022/06/15 13:04:04;;;;;;;1.73;0.25;;;;;;;25.00;48.14;100134.41;5106217;28;20043;-64
2022/06/15 13:07:21;;;;;;;2.38;0.35;;;;;;;24.70;48.44;100132.38;5106749;27;20217;-63
2022/06/15 13:10:24;;;;;;;0.65;0.30;;;;;;;25.26;49.43;100118.94;5103796;27;20497;-63
2022/06/15 13:13:27;;;;;;;3.22;0.45;;;;;;;24.75;49.17;100123.97;5104255;28;20047;-61
2022/06/15 13:16:15;;;;;;;;;;;;;;;24.44;48.58;100126.38;5103933;27;20462;-64
2022/06/15 13:19:03;;;;;;;2.08;0.25;;;;;;;24.85;49.08;100119.56;5099047;27;19923;-63
2022/06/15 13:21:53;;;;;;;1.23;0.40;;;;;;;24.15;50.22;100113.38;5105627;27;20121;-65
2022/06/15 13:25:04;;;;;;;2.17;0.20;;;;;;;24.95;51.78;100117.84;5104616;27;20054;-62
2022/06/15 13:27:58;;;;;;;0.93;0.17;;;;;;;24.40;51.68;100122.19;5103766;27;20110;-63